sensor_id;sensor_type;location;lat;lon;timestamp;temperature;humidity
15409;DHT22;7803;48.130;13.788;2023-06-14T00:01:26;23.40;84.90
15409;DHT22;7803;48.130;13.788;2023-06-14T00:04:29;23.40;84.90
15409;DHT22;7803;48.130;13.788;2023-06-14T00:07:37;23.50;84.90
15409;DHT22;7803;48.130;13.788;2023-06-14T00:10:42;23.40;84.70
15409;DHT22;7803;48.130;13.788;2023-06-14T00:13:44;23.40;84.80
15409;DHT22;7803;48.130;13.788;2023-06-14T00:16:47;23.50;84.90
15409;DHT22;7803;48.130;13.788;2023-06-14T00:19:49;23.40;84.80
15409;DHT22;7803;48.130;13.788;2023-06-14T00:22:52;23.40;84.90
15409;DHT22;7803;48.130;13.788;2023-06-14T00:25:54;23.40;84.80
15409;DHT22;7803;48.130;13.788;2023-06-14T00:28:56;23.40;84.80
15409;DHT22;7803;48.130;13.788;2023-06-14T00:31:58;23.50;84.90
15409;DHT22;7803;48.130;13.788;2023-06-14T00:35:00;23.50;84.90
15409;DHT22;7803;48.130;13.788;2023-06-14T00:38:04;23.40;84.90
15409;DHT22;7803;48.130;13.788;2023-06-14T00:41:06;23.40;84.90
15409;DHT22;7803;48.130;13.788;2023-06-14T00:44:08;23.40;84.90
15409;DHT22;7803;48.130;13.788;2023-06-14T00:47:10;23.40;84.90
15409;DHT22;7803;48.130;13.788;2023-06-14T00:50:12;23.40;85.00
15409;DHT22;7803;48.130;13.788;2023-06-14T00:53:16;23.40;85.90
15409;DHT22;7803;48.130;13.788;2023-06-14T00:56:19;23.40;85.00
15409;DHT22;7803;48.130;13.788;2023-06-14T00:59:21;23.40;85.00
15409;DHT22;7803;48.130;13.788;2023-06-14T01:02:23;23.40;85.00
15409;DHT22;7803;48.130;13.788;2023-06-14T01:05:26;23.40;84.90
15409;DHT22;7803;48.130;13.788;2023-06-14T01:08:38;23.40;84.90
15409;DHT22;7803;48.130;13.788;2023-06-14T01:11:50;23.40;84.90
15409;DHT22;7803;48.130;13.788;2023-06-14T01:14:54;23.40;85.00
15409;DHT22;7803;48.130;13.788;2023-06-14T01:17:57;23.40;84.90
15409;DHT22;7803;48.130;13.788;2023-06-14T01:21:03;23.40;85.00
15409;DHT22;7803;48.130;13.788;2023-06-14T01:24:07;23.40;85.00
15409;DHT22;7803;48.130;13.788;2023-06-14T01:27:09;23.40;85.00
15409;DHT22;7803;48.130;13.788;2023-06-14T01:30:13;23.40;85.00
15409;DHT22;7803;48.130;13.788;2023-06-14T01:33:18;23.40;85.00
15409;DHT22;7803;48.130;13.788;2023-06-14T01:36:21;23.40;85.00
15409;DHT22;7803;48.130;13.788;2023-06-14T01:39:25;23.40;85.00
15409;DHT22;7803;48.130;13.788;2023-06-14T01:42:28;23.40;85.10
15409;DHT22;7803;48.130;13.788;2023-06-14T01:45:30;23.40;85.10
15409;DHT22;7803;48.130;13.788;2023-06-14T01:48:32;23.40;85.10
15409;DHT22;7803;48.130;13.788;2023-06-14T01:51:34;23.40;85.10
15409;DHT22;7803;48.130;13.788;2023-06-14T01:54:38;23.40;85.10
15409;DHT22;7803;48.130;13.788;2023-06-14T01:57:44;23.40;85.00
15409;DHT22;7803;48.130;13.788;2023-06-14T02:00:46;23.40;85.00
15409;DHT22;7803;48.130;13.788;2023-06-14T02:03:48;23.40;85.00
15409;DHT22;7803;48.130;13.788;2023-06-14T02:06:51;23.40;85.00
15409;DHT22;7803;48.130;13.788;2023-06-14T02:09:55;23.40;85.00
15409;DHT22;7803;48.130;13.788;2023-06-14T02:12:57;23.40;85.10
15409;DHT22;7803;48.130;13.788;2023-06-14T02:15:59;23.40;85.10
15409;DHT22;7803;48.130;13.788;2023-06-14T02:19:01;23.40;85.10
15409;DHT22;7803;48.130;13.788;2023-06-14T02:22:03;23.40;85.10
15409;DHT22;7803;48.130;13.788;2023-06-14T02:25:07;23.40;85.10
15409;DHT22;7803;48.130;13.788;2023-06-14T02:28:10;23.40;85.10
15409;DHT22;7803;48.130;13.788;2023-06-14T02:31:11;23.40;85.10
15409;DHT22;7803;48.130;13.788;2023-06-14T02:34:13;23.40;85.20
15409;DHT22;7803;48.130;13.788;2023-06-14T02:37:17;23.40;85.20
15409;DHT22;7803;48.130;13.788;2023-06-14T02:40:20;23.40;85.20
15409;DHT22;7803;48.130;13.788;2023-06-14T02:43:23;23.40;85.30
15409;DHT22;7803;48.130;13.788;2023-06-14T02:46:25;23.40;85.30
15409;DHT22;7803;48.130;13.788;2023-06-14T02:49:27;23.40;85.20
15409;DHT22;7803;48.130;13.788;2023-06-14T02:52:29;23.40;85.20
15409;DHT22;7803;48.130;13.788;2023-06-14T02:55:32;23.40;85.20
15409;DHT22;7803;48.130;13.788;2023-06-14T02:58:35;23.40;85.20
15409;DHT22;7803;48.130;13.788;2023-06-14T03:01:37;23.40;85.10
15409;DHT22;7803;48.130;13.788;2023-06-14T03:04:39;23.40;85.20
15409;DHT22;7803;48.130;13.788;2023-06-14T03:07:44;23.40;85.20
15409;DHT22;7803;48.130;13.788;2023-06-14T03:10:49;23.40;85.20
15409;DHT22;7803;48.130;13.788;2023-06-14T03:13:51;23.40;85.20
15409;DHT22;7803;48.130;13.788;2023-06-14T03:16:53;23.40;85.20
15409;DHT22;7803;48.130;13.788;2023-06-14T03:19:57;23.40;85.30
15409;DHT22;7803;48.130;13.788;2023-06-14T03:23:00;23.40;85.20
15409;DHT22;7803;48.130;13.788;2023-06-14T03:26:04;23.40;85.40
15409;DHT22;7803;48.130;13.788;2023-06-14T03:29:06;23.40;85.30
15409;DHT22;7803;48.130;13.788;2023-06-14T03:32:08;23.30;85.20
15409;DHT22;7803;48.130;13.788;2023-06-14T03:35:10;23.40;85.30
15409;DHT22;7803;48.130;13.788;2023-06-14T03:38:17;23.30;85.30
15409;DHT22;7803;48.130;13.788;2023-06-14T03:41:21;23.30;85.30
15409;DHT22;7803;48.130;13.788;2023-06-14T03:44:23;23.40;85.30
15409;DHT22;7803;48.130;13.788;2023-06-14T03:47:24;23.40;85.30
15409;DHT22;7803;48.130;13.788;2023-06-14T03:50:27;23.40;85.20
15409;DHT22;7803;48.130;13.788;2023-06-14T03:53:29;23.30;85.20
15409;DHT22;7803;48.130;13.788;2023-06-14T03:56:32;23.30;85.20
15409;DHT22;7803;48.130;13.788;2023-06-14T03:59:34;23.40;85.30
15409;DHT22;7803;48.130;13.788;2023-06-14T04:02:37;23.30;85.30
15409;DHT22;7803;48.130;13.788;2023-06-14T04:05:39;23.40;85.40
15409;DHT22;7803;48.130;13.788;2023-06-14T04:08:42;23.30;85.30
15409;DHT22;7803;48.130;13.788;2023-06-14T04:11:47;23.30;85.30
15409;DHT22;7803;48.130;13.788;2023-06-14T04:14:49;23.30;86.20
15409;DHT22;7803;48.130;13.788;2023-06-14T04:17:51;23.40;85.40
15409;DHT22;7803;48.130;13.788;2023-06-14T04:20:57;23.30;85.40
15409;DHT22;7803;48.130;13.788;2023-06-14T04:23:59;23.30;85.50
15409;DHT22;7803;48.130;13.788;2023-06-14T04:27:03;23.30;85.50
15409;DHT22;7803;48.130;13.788;2023-06-14T04:30:08;23.30;85.50
15409;DHT22;7803;48.130;13.788;2023-06-14T04:33:10;23.30;85.50
15409;DHT22;7803;48.130;13.788;2023-06-14T04:36:12;23.40;85.70
15409;DHT22;7803;48.130;13.788;2023-06-14T04:39:18;23.40;85.70
15409;DHT22;7803;48.130;13.788;2023-06-14T04:42:22;23.40;85.90
15409;DHT22;7803;48.130;13.788;2023-06-14T04:45:25;23.40;85.80
15409;DHT22;7803;48.130;13.788;2023-06-14T04:48:32;23.40;85.90
15409;DHT22;7803;48.130;13.788;2023-06-14T04:51:34;23.30;85.90
15409;DHT22;7803;48.130;13.788;2023-06-14T04:54:37;23.40;85.90
15409;DHT22;7803;48.130;13.788;2023-06-14T04:57:40;23.40;86.00
15409;DHT22;7803;48.130;13.788;2023-06-14T05:00:43;23.40;85.90
15409;DHT22;7803;48.130;13.788;2023-06-14T05:03:45;23.40;85.90
15409;DHT22;7803;48.130;13.788;2023-06-14T05:06:49;23.40;86.00
15409;DHT22;7803;48.130;13.788;2023-06-14T05:09:51;23.40;86.10
15409;DHT22;7803;48.130;13.788;2023-06-14T05:12:54;23.40;86.00
15409;DHT22;7803;48.130;13.788;2023-06-14T05:15:56;23.40;86.00
15409;DHT22;7803;48.130;13.788;2023-06-14T05:18:58;23.40;86.00
15409;DHT22;7803;48.130;13.788;2023-06-14T05:22:02;23.40;85.90
15409;DHT22;7803;48.130;13.788;2023-06-14T05:25:05;23.40;85.90
15409;DHT22;7803;48.130;13.788;2023-06-14T05:28:08;23.40;85.90
15409;DHT22;7803;48.130;13.788;2023-06-14T05:31:10;23.40;86.00
15409;DHT22;7803;48.130;13.788;2023-06-14T05:34:12;23.40;86.00
15409;DHT22;7803;48.130;13.788;2023-06-14T05:37:14;23.40;85.90
15409;DHT22;7803;48.130;13.788;2023-06-14T05:40:16;23.40;85.90
15409;DHT22;7803;48.130;13.788;2023-06-14T05:43:20;23.40;85.90
15409;DHT22;7803;48.130;13.788;2023-06-14T05:46:22;23.40;85.90
15409;DHT22;7803;48.130;13.788;2023-06-14T05:49:26;23.40;85.90
15409;DHT22;7803;48.130;13.788;2023-06-14T05:52:27;23.40;85.90
15409;DHT22;7803;48.130;13.788;2023-06-14T05:55:30;23.40;85.80
15409;DHT22;7803;48.130;13.788;2023-06-14T05:58:33;23.40;85.80
15409;DHT22;7803;48.130;13.788;2023-06-14T06:01:35;23.50;85.90
15409;DHT22;7803;48.130;13.788;2023-06-14T06:04:38;23.50;85.80
15409;DHT22;7803;48.130;13.788;2023-06-14T06:07:40;23.50;85.90
15409;DHT22;7803;48.130;13.788;2023-06-14T06:10:42;23.40;85.90
15409;DHT22;7803;48.130;13.788;2023-06-14T06:13:45;23.50;85.90
15409;DHT22;7803;48.130;13.788;2023-06-14T06:16:48;23.50;85.90
15409;DHT22;7803;48.130;13.788;2023-06-14T06:19:49;23.50;85.80
15409;DHT22;7803;48.130;13.788;2023-06-14T06:22:51;23.50;85.90
15409;DHT22;7803;48.130;13.788;2023-06-14T06:25:53;23.50;85.90
15409;DHT22;7803;48.130;13.788;2023-06-14T06:28:57;23.50;85.90
15409;DHT22;7803;48.130;13.788;2023-06-14T06:31:59;23.50;85.90
15409;DHT22;7803;48.130;13.788;2023-06-14T06:35:01;23.50;85.80
15409;DHT22;7803;48.130;13.788;2023-06-14T06:38:04;23.50;85.80
15409;DHT22;7803;48.130;13.788;2023-06-14T06:41:05;23.40;85.70
15409;DHT22;7803;48.130;13.788;2023-06-14T06:44:09;23.40;85.80
15409;DHT22;7803;48.130;13.788;2023-06-14T06:47:11;23.50;85.90
15409;DHT22;7803;48.130;13.788;2023-06-14T06:50:13;23.50;85.90
15409;DHT22;7803;48.130;13.788;2023-06-14T06:53:16;23.50;85.90
15409;DHT22;7803;48.130;13.788;2023-06-14T06:56:19;23.40;85.80
15409;DHT22;7803;48.130;13.788;2023-06-14T06:59:24;23.40;85.80
15409;DHT22;7803;48.130;13.788;2023-06-14T07:02:26;23.40;85.80
15409;DHT22;7803;48.130;13.788;2023-06-14T07:05:31;23.50;85.90
15409;DHT22;7803;48.130;13.788;2023-06-14T07:08:33;23.50;85.90
15409;DHT22;7803;48.130;13.788;2023-06-14T07:11:36;23.50;85.90
15409;DHT22;7803;48.130;13.788;2023-06-14T07:14:39;23.50;85.90
15409;DHT22;7803;48.130;13.788;2023-06-14T07:17:41;23.50;85.90
15409;DHT22;7803;48.130;13.788;2023-06-14T07:20:46;23.50;85.90
15409;DHT22;7803;48.130;13.788;2023-06-14T07:23:49;23.50;85.90
15409;DHT22;7803;48.130;13.788;2023-06-14T07:26:51;23.50;85.90
15409;DHT22;7803;48.130;13.788;2023-06-14T07:29:54;23.50;86.00
15409;DHT22;7803;48.130;13.788;2023-06-14T07:32:56;23.50;86.00
15409;DHT22;7803;48.130;13.788;2023-06-14T07:35:58;23.50;86.10
15409;DHT22;7803;48.130;13.788;2023-06-14T07:39:00;23.50;86.00
15409;DHT22;7803;48.130;13.788;2023-06-14T07:42:04;23.50;86.00
15409;DHT22;7803;48.130;13.788;2023-06-14T07:45:09;23.50;86.00
15409;DHT22;7803;48.130;13.788;2023-06-14T07:48:11;23.50;86.00
15409;DHT22;7803;48.130;13.788;2023-06-14T07:51:13;23.50;86.00
15409;DHT22;7803;48.130;13.788;2023-06-14T07:54:15;23.50;86.10
15409;DHT22;7803;48.130;13.788;2023-06-14T07:57:17;23.50;86.00
15409;DHT22;7803;48.130;13.788;2023-06-14T08:00:22;23.50;86.10
15409;DHT22;7803;48.130;13.788;2023-06-14T08:03:24;23.50;86.10
15409;DHT22;7803;48.130;13.788;2023-06-14T08:06:27;23.50;86.10
15409;DHT22;7803;48.130;13.788;2023-06-14T08:09:29;23.50;86.10
15409;DHT22;7803;48.130;13.788;2023-06-14T08:12:31;23.50;86.10
15409;DHT22;7803;48.130;13.788;2023-06-14T08:15:34;23.50;86.20
15409;DHT22;7803;48.130;13.788;2023-06-14T08:18:36;23.50;86.10
15409;DHT22;7803;48.130;13.788;2023-06-14T08:21:38;23.50;86.10
15409;DHT22;7803;48.130;13.788;2023-06-14T08:24:40;23.50;86.10
15409;DHT22;7803;48.130;13.788;2023-06-14T08:27:42;23.50;86.10
15409;DHT22;7803;48.130;13.788;2023-06-14T08:30:46;23.50;86.10
15409;DHT22;7803;48.130;13.788;2023-06-14T08:33:48;23.50;86.10
15409;DHT22;7803;48.130;13.788;2023-06-14T08:36:50;23.50;86.10
15409;DHT22;7803;48.130;13.788;2023-06-14T08:39:52;23.50;86.10
15409;DHT22;7803;48.130;13.788;2023-06-14T08:42:55;23.50;86.10
15409;DHT22;7803;48.130;13.788;2023-06-14T08:46:00;23.50;86.10
15409;DHT22;7803;48.130;13.788;2023-06-14T08:49:04;23.50;86.10
15409;DHT22;7803;48.130;13.788;2023-06-14T08:52:09;23.50;86.10
15409;DHT22;7803;48.130;13.788;2023-06-14T08:55:13;23.40;86.00
15409;DHT22;7803;48.130;13.788;2023-06-14T08:58:15;23.50;86.10
15409;DHT22;7803;48.130;13.788;2023-06-14T09:01:19;23.50;86.10
15409;DHT22;7803;48.130;13.788;2023-06-14T09:04:22;23.50;86.10
15409;DHT22;7803;48.130;13.788;2023-06-14T09:07:24;23.50;86.20
15409;DHT22;7803;48.130;13.788;2023-06-14T09:10:27;23.50;86.10
15409;DHT22;7803;48.130;13.788;2023-06-14T09:13:29;23.50;86.10
15409;DHT22;7803;48.130;13.788;2023-06-14T09:16:34;23.50;86.10
15409;DHT22;7803;48.130;13.788;2023-06-14T09:19:36;23.40;85.90
15409;DHT22;7803;48.130;13.788;2023-06-14T09:22:38;23.50;86.10
15409;DHT22;7803;48.130;13.788;2023-06-14T09:25:42;23.50;86.10
15409;DHT22;7803;48.130;13.788;2023-06-14T09:28:45;23.50;86.10
15409;DHT22;7803;48.130;13.788;2023-06-14T09:31:49;23.50;86.10
15409;DHT22;7803;48.130;13.788;2023-06-14T09:34:51;23.50;86.00
15409;DHT22;7803;48.130;13.788;2023-06-14T09:37:55;23.40;85.80
15409;DHT22;7803;48.130;13.788;2023-06-14T09:40:58;23.50;86.80
15409;DHT22;7803;48.130;13.788;2023-06-14T09:44:01;23.50;86.10
15409;DHT22;7803;48.130;13.788;2023-06-14T09:47:05;23.50;86.10
15409;DHT22;7803;48.130;13.788;2023-06-14T09:50:08;23.50;85.90
15409;DHT22;7803;48.130;13.788;2023-06-14T09:53:11;23.40;85.90
15409;DHT22;7803;48.130;13.788;2023-06-14T09:56:13;23.40;85.90
15409;DHT22;7803;48.130;13.788;2023-06-14T09:59:19;23.50;85.90
15409;DHT22;7803;48.130;13.788;2023-06-14T10:02:33;23.40;85.70
15409;DHT22;7803;48.130;13.788;2023-06-14T10:05:37;23.40;85.90
15409;DHT22;7803;48.130;13.788;2023-06-14T10:08:40;23.50;85.90
15409;DHT22;7803;48.130;13.788;2023-06-14T10:11:43;23.50;85.70
15409;DHT22;7803;48.130;13.788;2023-06-14T10:14:45;23.40;85.50
15409;DHT22;7803;48.130;13.788;2023-06-14T10:17:51;23.40;85.40
15409;DHT22;7803;48.130;13.788;2023-06-14T10:21:05;23.40;85.40
15409;DHT22;7803;48.130;13.788;2023-06-14T10:24:13;23.40;85.50
15409;DHT22;7803;48.130;13.788;2023-06-14T10:27:17;23.40;85.50
15409;DHT22;7803;48.130;13.788;2023-06-14T10:30:25;23.40;85.60
15409;DHT22;7803;48.130;13.788;2023-06-14T10:33:29;23.40;85.40
15409;DHT22;7803;48.130;13.788;2023-06-14T10:36:31;23.40;85.40
15409;DHT22;7803;48.130;13.788;2023-06-14T10:39:39;23.40;85.50
15409;DHT22;7803;48.130;13.788;2023-06-14T10:42:51;23.40;85.60
15409;DHT22;7803;48.130;13.788;2023-06-14T10:46:14;23.40;85.70
15409;DHT22;7803;48.130;13.788;2023-06-14T10:49:17;23.40;85.70
15409;DHT22;7803;48.130;13.788;2023-06-14T10:52:25;23.40;85.70
15409;DHT22;7803;48.130;13.788;2023-06-14T10:55:35;23.40;85.70
15409;DHT22;7803;48.130;13.788;2023-06-14T10:58:37;23.40;85.60
15409;DHT22;7803;48.130;13.788;2023-06-14T11:01:45;23.40;85.50
15409;DHT22;7803;48.130;13.788;2023-06-14T11:04:53;23.40;85.50
15409;DHT22;7803;48.130;13.788;2023-06-14T11:08:24;23.40;85.50
15409;DHT22;7803;48.130;13.788;2023-06-14T11:11:32;23.40;85.40
15409;DHT22;7803;48.130;13.788;2023-06-14T11:14:35;23.40;85.40
15409;DHT22;7803;48.130;13.788;2023-06-14T11:17:37;23.40;85.20
15409;DHT22;7803;48.130;13.788;2023-06-14T11:20:40;23.40;85.20
15409;DHT22;7803;48.130;13.788;2023-06-14T11:23:44;23.40;85.20
15409;DHT22;7803;48.130;13.788;2023-06-14T11:26:50;23.40;85.20
15409;DHT22;7803;48.130;13.788;2023-06-14T11:29:52;23.40;85.20
15409;DHT22;7803;48.130;13.788;2023-06-14T11:32:55;23.40;85.30
15409;DHT22;7803;48.130;13.788;2023-06-14T11:36:02;23.40;85.30
15409;DHT22;7803;48.130;13.788;2023-06-14T11:39:06;23.40;85.20
15409;DHT22;7803;48.130;13.788;2023-06-14T11:42:13;23.40;85.20
15409;DHT22;7803;48.130;13.788;2023-06-14T11:45:15;23.40;85.10
15409;DHT22;7803;48.130;13.788;2023-06-14T11:48:17;23.40;85.20
15409;DHT22;7803;48.130;13.788;2023-06-14T11:51:21;23.40;85.10
15409;DHT22;7803;48.130;13.788;2023-06-14T11:54:23;23.50;85.20
15409;DHT22;7803;48.130;13.788;2023-06-14T11:57:25;23.40;85.00
15409;DHT22;7803;48.130;13.788;2023-06-14T12:00:27;23.40;84.90
15409;DHT22;7803;48.130;13.788;2023-06-14T12:03:30;23.40;84.70
15409;DHT22;7803;48.130;13.788;2023-06-14T12:06:33;23.40;84.80
15409;DHT22;7803;48.130;13.788;2023-06-14T12:09:36;23.40;84.90
15409;DHT22;7803;48.130;13.788;2023-06-14T12:12:39;23.40;84.80
15409;DHT22;7803;48.130;13.788;2023-06-14T12:15:42;23.40;84.70
15409;DHT22;7803;48.130;13.788;2023-06-14T12:18:44;23.40;84.70
15409;DHT22;7803;48.130;13.788;2023-06-14T12:21:48;23.40;84.70
15409;DHT22;7803;48.130;13.788;2023-06-14T12:24:52;23.40;84.70
15409;DHT22;7803;48.130;13.788;2023-06-14T12:27:54;23.40;84.70
15409;DHT22;7803;48.130;13.788;2023-06-14T12:30:57;23.40;84.70
15409;DHT22;7803;48.130;13.788;2023-06-14T12:33:59;23.40;84.90
15409;DHT22;7803;48.130;13.788;2023-06-14T12:37:03;23.40;84.90
15409;DHT22;7803;48.130;13.788;2023-06-14T12:40:06;23.40;84.90
15409;DHT22;7803;48.130;13.788;2023-06-14T12:43:08;23.40;84.80
15409;DHT22;7803;48.130;13.788;2023-06-14T12:46:10;23.40;84.90
15409;DHT22;7803;48.130;13.788;2023-06-14T12:49:12;23.40;84.90
15409;DHT22;7803;48.130;13.788;2023-06-14T12:52:15;23.40;84.80
15409;DHT22;7803;48.130;13.788;2023-06-14T12:55:17;23.40;84.70
15409;DHT22;7803;48.130;13.788;2023-06-14T12:58:20;23.40;85.70
15409;DHT22;7803;48.130;13.788;2023-06-14T13:01:24;23.40;84.80
15409;DHT22;7803;48.130;13.788;2023-06-14T13:04:26;23.40;84.80
15409;DHT22;7803;48.130;13.788;2023-06-14T13:07:29;23.40;84.80
15409;DHT22;7803;48.130;13.788;2023-06-14T13:10:31;23.40;84.80
15409;DHT22;7803;48.130;13.788;2023-06-14T13:13:33;23.40;84.70
15409;DHT22;7803;48.130;13.788;2023-06-14T13:16:35;23.40;84.70
15409;DHT22;7803;48.130;13.788;2023-06-14T13:19:37;23.40;84.80
15409;DHT22;7803;48.130;13.788;2023-06-14T13:22:40;23.40;84.90
15409;DHT22;7803;48.130;13.788;2023-06-14T13:25:43;23.40;84.80
15409;DHT22;7803;48.130;13.788;2023-06-14T13:28:44;23.40;84.70
15409;DHT22;7803;48.130;13.788;2023-06-14T13:31:47;23.40;84.70
15409;DHT22;7803;48.130;13.788;2023-06-14T13:34:49;23.40;84.70
15409;DHT22;7803;48.130;13.788;2023-06-14T13:37:52;23.40;84.70
15409;DHT22;7803;48.130;13.788;2023-06-14T13:40:54;23.40;84.70
15409;DHT22;7803;48.130;13.788;2023-06-14T13:43:56;23.50;84.90
15409;DHT22;7803;48.130;13.788;2023-06-14T13:46:59;23.40;84.90
15409;DHT22;7803;48.130;13.788;2023-06-14T13:50:01;23.40;84.90
15409;DHT22;7803;48.130;13.788;2023-06-14T13:53:05;23.40;84.70
15409;DHT22;7803;48.130;13.788;2023-06-14T13:56:07;23.40;84.60
15409;DHT22;7803;48.130;13.788;2023-06-14T13:59:09;23.40;84.70
15409;DHT22;7803;48.130;13.788;2023-06-14T14:02:11;23.40;84.70
15409;DHT22;7803;48.130;13.788;2023-06-14T14:05:14;23.40;84.70
15409;DHT22;7803;48.130;13.788;2023-06-14T14:08:17;23.40;84.70
15409;DHT22;7803;48.130;13.788;2023-06-14T14:11:19;23.40;84.70
15409;DHT22;7803;48.130;13.788;2023-06-14T14:14:22;23.40;85.50
15409;DHT22;7803;48.130;13.788;2023-06-14T14:17:24;23.40;84.70
15409;DHT22;7803;48.130;13.788;2023-06-14T14:20:31;23.40;84.80
15409;DHT22;7803;48.130;13.788;2023-06-14T14:23:34;23.50;84.90
15409;DHT22;7803;48.130;13.788;2023-06-14T14:26:36;23.40;84.70
15409;DHT22;7803;48.130;13.788;2023-06-14T14:29:38;23.40;85.70
15409;DHT22;7803;48.130;13.788;2023-06-14T14:32:40;23.40;84.70
15409;DHT22;7803;48.130;13.788;2023-06-14T14:35:42;23.50;84.70
15409;DHT22;7803;48.130;13.788;2023-06-14T14:38:46;23.40;84.60
15409;DHT22;7803;48.130;13.788;2023-06-14T14:41:49;23.50;84.80
15409;DHT22;7803;48.130;13.788;2023-06-14T14:44:51;23.40;84.70
15409;DHT22;7803;48.130;13.788;2023-06-14T14:47:53;23.40;84.70
15409;DHT22;7803;48.130;13.788;2023-06-14T14:50:55;23.40;84.70
15409;DHT22;7803;48.130;13.788;2023-06-14T14:53:59;23.40;84.80
15409;DHT22;7803;48.130;13.788;2023-06-14T14:57:01;23.40;84.70
15409;DHT22;7803;48.130;13.788;2023-06-14T15:00:04;23.50;84.90
15409;DHT22;7803;48.130;13.788;2023-06-14T15:03:06;23.40;84.80
15409;DHT22;7803;48.130;13.788;2023-06-14T15:06:08;23.40;84.80
15409;DHT22;7803;48.130;13.788;2023-06-14T15:09:11;23.40;84.70
15409;DHT22;7803;48.130;13.788;2023-06-14T15:12:13;23.40;84.80
15409;DHT22;7803;48.130;13.788;2023-06-14T15:15:15;23.50;84.70
15409;DHT22;7803;48.130;13.788;2023-06-14T15:18:17;23.40;84.50
15409;DHT22;7803;48.130;13.788;2023-06-14T15:21:21;23.40;84.60
15409;DHT22;7803;48.130;13.788;2023-06-14T15:24:24;23.40;84.60
15409;DHT22;7803;48.130;13.788;2023-06-14T15:27:26;23.50;84.60
15409;DHT22;7803;48.130;13.788;2023-06-14T15:30:28;23.50;84.50
15409;DHT22;7803;48.130;13.788;2023-06-14T15:33:30;23.40;84.50
15409;DHT22;7803;48.130;13.788;2023-06-14T15:36:33;23.40;84.50
15409;DHT22;7803;48.130;13.788;2023-06-14T15:39:37;23.40;84.50
15409;DHT22;7803;48.130;13.788;2023-06-14T15:42:39;23.40;84.50
15409;DHT22;7803;48.130;13.788;2023-06-14T15:45:41;23.50;84.50
15409;DHT22;7803;48.130;13.788;2023-06-14T15:48:44;23.40;84.50
15409;DHT22;7803;48.130;13.788;2023-06-14T15:51:46;23.40;84.50
15409;DHT22;7803;48.130;13.788;2023-06-14T15:54:49;23.40;84.40
15409;DHT22;7803;48.130;13.788;2023-06-14T15:57:51;23.40;84.40
15409;DHT22;7803;48.130;13.788;2023-06-14T16:00:53;23.40;84.40
15409;DHT22;7803;48.130;13.788;2023-06-14T16:03:55;23.40;84.40
15409;DHT22;7803;48.130;13.788;2023-06-14T16:06:57;23.40;84.40
15409;DHT22;7803;48.130;13.788;2023-06-14T16:10:01;23.40;84.30
15409;DHT22;7803;48.130;13.788;2023-06-14T16:13:03;23.40;84.20
15409;DHT22;7803;48.130;13.788;2023-06-14T16:16:05;23.40;84.20
15409;DHT22;7803;48.130;13.788;2023-06-14T16:19:07;23.40;84.20
15409;DHT22;7803;48.130;13.788;2023-06-14T16:22:09;23.40;84.20
15409;DHT22;7803;48.130;13.788;2023-06-14T16:25:12;23.40;84.30
15409;DHT22;7803;48.130;13.788;2023-06-14T16:28:14;23.50;84.40
15409;DHT22;7803;48.130;13.788;2023-06-14T16:31:16;23.40;84.40
15409;DHT22;7803;48.130;13.788;2023-06-14T16:34:19;23.40;84.40
15409;DHT22;7803;48.130;13.788;2023-06-14T16:37:21;23.40;84.40
15409;DHT22;7803;48.130;13.788;2023-06-14T16:40:25;23.40;84.40
15409;DHT22;7803;48.130;13.788;2023-06-14T16:43:27;23.40;84.50
15409;DHT22;7803;48.130;13.788;2023-06-14T16:46:30;23.40;84.50
15409;DHT22;7803;48.130;13.788;2023-06-14T16:49:32;23.40;84.50
15409;DHT22;7803;48.130;13.788;2023-06-14T16:52:34;23.40;84.40
15409;DHT22;7803;48.130;13.788;2023-06-14T16:55:37;23.50;84.50
15409;DHT22;7803;48.130;13.788;2023-06-14T16:58:39;23.40;84.40
15409;DHT22;7803;48.130;13.788;2023-06-14T17:01:41;23.40;84.40
15409;DHT22;7803;48.130;13.788;2023-06-14T17:04:43;23.40;84.40
15409;DHT22;7803;48.130;13.788;2023-06-14T17:07:45;23.40;84.30
15409;DHT22;7803;48.130;13.788;2023-06-14T17:10:49;23.50;84.40
15409;DHT22;7803;48.130;13.788;2023-06-14T17:13:51;23.40;84.30
15409;DHT22;7803;48.130;13.788;2023-06-14T17:16:53;23.40;84.20
15409;DHT22;7803;48.130;13.788;2023-06-14T17:19:55;23.50;84.40
15409;DHT22;7803;48.130;13.788;2023-06-14T17:22:57;23.40;84.20
15409;DHT22;7803;48.130;13.788;2023-06-14T17:26:01;23.40;84.20
15409;DHT22;7803;48.130;13.788;2023-06-14T17:29:03;23.40;84.30
15409;DHT22;7803;48.130;13.788;2023-06-14T17:32:06;23.40;84.30
15409;DHT22;7803;48.130;13.788;2023-06-14T17:35:08;23.40;84.40
15409;DHT22;7803;48.130;13.788;2023-06-14T17:38:13;23.40;84.40
15409;DHT22;7803;48.130;13.788;2023-06-14T17:41:18;23.40;84.40
15409;DHT22;7803;48.130;13.788;2023-06-14T17:44:19;23.40;84.40
15409;DHT22;7803;48.130;13.788;2023-06-14T17:47:21;23.40;84.40
15409;DHT22;7803;48.130;13.788;2023-06-14T17:50:24;23.40;84.40
15409;DHT22;7803;48.130;13.788;2023-06-14T17:53:26;23.40;84.40
15409;DHT22;7803;48.130;13.788;2023-06-14T17:56:29;23.40;84.30
15409;DHT22;7803;48.130;13.788;2023-06-14T17:59:31;23.40;84.30
15409;DHT22;7803;48.130;13.788;2023-06-14T18:02:33;23.40;84.30
15409;DHT22;7803;48.130;13.788;2023-06-14T18:05:36;23.50;84.40
15409;DHT22;7803;48.130;13.788;2023-06-14T18:08:40;23.50;84.30
15409;DHT22;7803;48.130;13.788;2023-06-14T18:11:45;23.50;84.30
15409;DHT22;7803;48.130;13.788;2023-06-14T18:14:47;23.40;84.20
15409;DHT22;7803;48.130;13.788;2023-06-14T18:17:49;23.40;84.30
15409;DHT22;7803;48.130;13.788;2023-06-14T18:20:52;23.40;84.30
15409;DHT22;7803;48.130;13.788;2023-06-14T18:23:54;23.40;84.40
15409;DHT22;7803;48.130;13.788;2023-06-14T18:26:58;23.40;84.30
15409;DHT22;7803;48.130;13.788;2023-06-14T18:30:01;23.40;84.30
15409;DHT22;7803;48.130;13.788;2023-06-14T18:33:03;23.40;84.30
15409;DHT22;7803;48.130;13.788;2023-06-14T18:36:05;23.40;84.30
15409;DHT22;7803;48.130;13.788;2023-06-14T18:39:08;23.50;84.30
15409;DHT22;7803;48.130;13.788;2023-06-14T18:42:11;23.40;84.30
15409;DHT22;7803;48.130;13.788;2023-06-14T18:45:13;23.40;84.30
15409;DHT22;7803;48.130;13.788;2023-06-14T18:48:16;23.40;84.30
15409;DHT22;7803;48.130;13.788;2023-06-14T18:51:18;23.50;84.30
15409;DHT22;7803;48.130;13.788;2023-06-14T18:54:20;23.50;84.30
15409;DHT22;7803;48.130;13.788;2023-06-14T18:57:23;23.40;84.20
15409;DHT22;7803;48.130;13.788;2023-06-14T19:00:25;23.40;84.20
15409;DHT22;7803;48.130;13.788;2023-06-14T19:03:30;23.40;84.20
15409;DHT22;7803;48.130;13.788;2023-06-14T19:06:32;23.40;84.20
15409;DHT22;7803;48.130;13.788;2023-06-14T19:09:34;23.50;84.20
15409;DHT22;7803;48.130;13.788;2023-06-14T19:12:37;23.40;84.10
15409;DHT22;7803;48.130;13.788;2023-06-14T19:15:39;23.40;84.10